Time;durP1;ratioP1;P1;durP2;ratioP2;P2;SDS_P1;SDS_P2;PMS_P1;PMS_P2;Temp;Humidity;BMP_temperature;BMP_pressure;BME280_temperature;BME280_humidity;BME280_pressure;Samples;Min_cycle;Max_cycle;Signal;HPM_P1;HPM_P2
2023/03/24 00:00:26;;;;;;;1.23;0.90;;;19.80;66.80;;;;;;5020150;28;20432;-86
2023/03/24 00:02:53;;;;;;;1.00;0.80;;;19.80;66.80;;;;;;5012559;28;20448;-85
2023/03/24 00:05:21;;;;;;;1.37;0.80;;;19.80;66.80;;;;;;4995964;28;20484;-86
2023/03/24 00:07:49;;;;;;;4.33;1.03;;;19.80;66.80;;;;;;4996230;28;20454;-85
2023/03/24 00:10:19;;;;;;;1.37;1.00;;;19.80;66.90;;;;;;4996288;28;20563;-85
2023/03/24 00:12:47;;;;;;;1.47;1.00;;;19.80;67.00;;;;;;4998008;28;20483;-85
2023/03/24 00:15:17;;;;;;;1.13;0.90;;;19.70;66.90;;;;;;4997460;28;20507;-85
2023/03/24 00:17:49;;;;;;;1.43;1.00;;;19.70;67.00;;;;;;5000354;28;21053;-85
2023/03/24 00:20:17;;;;;;;1.03;0.77;;;19.70;67.00;;;;;;4995417;28;20507;-85
2023/03/24 00:22:47;;;;;;;1.30;1.00;;;19.70;66.90;;;;;;4995491;28;20447;-86
2023/03/24 00:25:15;;;;;;;3.80;1.10;;;19.70;66.80;;;;;;4995145;28;20448;-84
2023/03/24 00:27:43;;;;;;;1.00;0.80;;;19.70;66.90;;;;;;4995227;28;20444;-85
2023/03/24 00:30:12;;;;;;;1.40;0.90;;;19.70;67.00;;;;;;4995192;28;20511;-85
2023/03/24 00:32:39;;;;;;;1.40;1.07;;;19.70;67.10;;;;;;4994774;28;20455;-85
2023/03/24 00:35:11;;;;;;;1.07;0.87;;;19.70;67.10;;;;;;4994901;28;20444;-86
2023/03/24 00:37:38;;;;;;;1.83;1.00;;;19.70;67.00;;;;;;4994829;28;20444;-85
2023/03/24 00:40:08;;;;;;;1.30;0.80;;;19.70;67.10;;;;;;4994597;28;21026;-85
2023/03/24 00:42:36;;;;;;;1.33;1.03;;;19.70;67.10;;;;;;4994382;28;20475;-85
2023/03/24 00:45:03;;;;;;;1.17;0.80;;;19.70;67.10;;;;;;4994434;28;20573;-85
2023/03/24 00:47:35;;;;;;;2.50;1.03;;;19.70;67.10;;;;;;4994226;28;20522;-85
2023/03/24 00:50:03;;;;;;;1.10;0.83;;;19.70;67.10;;;;;;4994567;28;20525;-85
2023/03/24 00:52:33;;;;;;;1.10;1.00;;;19.70;67.10;;;;;;4994052;28;20451;-85
2023/03/24 00:55:02;;;;;;;1.30;0.90;;;19.70;67.10;;;;;;4994491;28;20830;-85
2023/03/24 00:57:33;;;;;;;1.20;1.00;;;19.70;67.00;;;;;;4994554;28;20467;-85
2023/03/24 01:00:10;;;;;;;1.10;0.87;;;19.70;67.10;;;;;;4994126;28;20527;-84
2023/03/24 01:02:37;;;;;;;2.60;0.80;;;19.70;67.10;;;;;;4994345;28;20448;-85
2023/03/24 01:05:05;;;;;;;2.17;0.90;;;19.70;67.10;;;;;;4994114;28;20498;-84
2023/03/24 01:07:33;;;;;;;1.47;0.90;;;19.70;67.10;;;;;;4993831;28;20885;-85
2023/03/24 01:10:00;;;;;;;1.10;0.90;;;19.70;67.20;;;;;;4994089;28;20444;-84
2023/03/24 01:12:31;;;;;;;1.37;1.20;;;19.70;67.20;;;;;;4994124;28;20456;-84
2023/03/24 01:14:59;;;;;;;1.30;1.00;;;19.70;67.20;;;;;;4994350;28;20447;-84
2023/03/24 01:17:28;;;;;;;1.00;0.80;;;19.70;67.20;;;;;;4993956;28;20479;-87
2023/03/24 01:19:55;;;;;;;2.70;1.00;;;19.60;67.10;;;;;;4993945;28;20495;-84
2023/03/24 01:22:27;;;;;;;1.83;0.90;;;19.70;67.20;;;;;;4994301;28;20490;-84
2023/03/24 01:24:55;;;;;;;1.40;0.90;;;19.70;67.20;;;;;;4994448;28;20456;-85
2023/03/24 01:27:22;;;;;;;1.40;0.90;;;19.70;67.30;;;;;;4994272;28;20857;-84
2023/03/24 01:29:49;;;;;;;1.10;0.87;;;19.70;67.20;;;;;;4994561;28;20444;-85
2023/03/24 01:32:16;;;;;;;1.20;0.80;;;19.70;67.20;;;;;;4994143;28;20808;-84
2023/03/24 01:34:43;;;;;;;1.10;0.90;;;19.70;67.10;;;;;;4994550;28;20483;-85
2023/03/24 01:37:10;;;;;;;1.20;1.10;;;19.70;67.20;;;;;;4994272;28;20483;-85
2023/03/24 01:39:37;;;;;;;1.20;1.10;;;19.70;67.10;;;;;;4993952;28;20531;-85
2023/03/24 01:42:06;;;;;;;1.20;0.80;;;19.70;67.20;;;;;;4994336;28;20456;-85
2023/03/24 01:44:35;;;;;;;1.20;0.90;;;19.70;67.20;;;;;;4994119;28;20707;-85
2023/03/24 01:47:03;;;;;;;1.30;1.10;;;19.70;67.20;;;;;;4994184;28;20541;-85
2023/03/24 01:49:35;;;;;;;1.40;1.23;;;19.60;67.10;;;;;;4994341;28;20507;-85
2023/03/24 01:52:04;;;;;;;1.10;0.90;;;19.70;67.10;;;;;;4994334;28;20509;-85
2023/03/24 01:54:35;;;;;;;1.50;0.90;;;19.70;67.20;;;;;;4994122;28;20535;-85
2023/03/24 01:57:06;;;;;;;1.30;1.00;;;19.70;67.30;;;;;;4994330;28;20502;-85
2023/03/24 01:59:36;;;;;;;1.40;1.00;;;19.70;67.30;;;;;;4994057;28;21027;-84
2023/03/24 02:02:05;;;;;;;1.10;0.90;;;19.70;67.30;;;;;;4993450;28;20486;-84
2023/03/24 02:04:37;;;;;;;1.40;0.97;;;19.70;67.50;;;;;;4993948;28;20523;-84
2023/03/24 02:07:11;;;;;;;1.17;0.90;;;19.70;67.50;;;;;;4997725;28;21006;-84
2023/03/24 02:09:38;;;;;;;1.00;0.80;;;19.70;67.50;;;;;;4997950;28;20471;-84
2023/03/24 02:12:07;;;;;;;1.40;0.80;;;19.70;67.50;;;;;;4997908;28;20487;-84
2023/03/24 02:14:34;;;;;;;1.00;0.80;;;19.70;67.50;;;;;;4996678;28;20545;-84
2023/03/24 02:17:28;;;;;;;1.10;0.93;;;19.70;67.50;;;;;;4997384;28;20515;-84
2023/03/24 02:20:34;;;;;;;1.07;0.90;;;19.70;67.50;;;;;;4997033;28;20568;-84
2023/03/24 02:23:40;;;;;;;1.87;0.93;;;19.60;67.40;;;;;;4998005;28;20455;-84
2023/03/24 02:26:44;;;;;;;1.50;1.20;;;19.70;67.50;;;;;;4998091;28;20439;-84
2023/03/24 02:29:43;;;;;;;1.07;0.90;;;19.70;67.50;;;;;;4993315;28;20958;-84
2023/03/24 02:32:28;;;;;;;1.10;0.90;;;19.60;67.40;;;;;;4961504;28;20470;-84
2023/03/24 02:35:24;;;;;;;1.93;0.90;;;19.60;67.40;;;;;;5019324;28;20443;-84
2023/03/24 02:38:16;;;;;;;1.10;0.90;;;19.60;67.40;;;;;;5006586;28;20478;-84
2023/03/24 02:40:50;;;;;;;1.00;0.80;;;19.60;67.40;;;;;;4996977;28;20484;-84
2023/03/24 02:43:26;;;;;;;1.20;0.80;;;19.60;67.40;;;;;;4996790;28;20871;-84
2023/03/24 02:46:12;;;;;;;1.13;0.90;;;19.60;67.50;;;;;;4996785;28;20554;-84
2023/03/24 02:48:52;;;;;;;1.20;0.83;;;19.60;67.40;;;;;;4996374;28;20601;-84
2023/03/24 02:51:26;;;;;;;1.30;1.10;;;19.60;67.40;;;;;;4996250;28;20468;-84
2023/03/24 02:54:01;;;;;;;1.00;0.80;;;19.60;67.40;;;;;;4996516;28;20527;-84
2023/03/24 02:56:36;;;;;;;2.37;1.20;;;19.60;67.40;;;;;;4996548;28;20515;-84
2023/03/24 02:59:05;;;;;;;1.30;0.90;;;19.60;67.40;;;;;;4996314;28;20836;-84
2023/03/24 03:01:36;;;;;;;1.20;0.87;;;19.60;67.40;;;;;;4996678;28;20500;-84
2023/03/24 03:04:08;;;;;;;1.00;0.90;;;19.60;68.20;;;;;;4996422;28;20462;-84
2023/03/24 03:06:42;;;;;;;1.20;0.90;;;19.60;67.30;;;;;;4996418;28;20444;-84
2023/03/24 03:09:12;;;;;;;1.10;0.80;;;19.60;67.30;;;;;;4996431;28;20437;-84
2023/03/24 03:11:43;;;;;;;1.90;0.93;;;19.60;67.40;;;;;;4996287;28;20440;-87
2023/03/24 03:14:13;;;;;;;1.20;1.00;;;19.60;67.40;;;;;;4996089;28;20440;-84
2023/03/24 03:16:44;;;;;;;1.07;0.90;;;19.60;67.40;;;;;;4996188;28;20558;-84
2023/03/24 03:19:16;;;;;;;1.20;0.80;;;19.60;67.30;;;;;;4995856;28;20468;-84
2023/03/24 03:21:45;;;;;;;1.30;1.00;;;19.60;67.30;;;;;;4996226;28;20452;-84
2023/03/24 03:24:18;;;;;;;1.10;0.90;;;19.60;67.30;;;;;;4995989;28;20930;-84
2023/03/24 03:26:49;;;;;;;1.10;0.83;;;19.60;67.30;;;;;;4996243;28;20440;-84
2023/03/24 03:29:21;;;;;;;1.00;0.80;;;19.60;67.30;;;;;;4995931;28;20534;-84
2023/03/24 03:31:52;;;;;;;1.00;0.70;;;19.60;67.30;;;;;;4995917;28;20440;-84
2023/03/24 03:34:28;;;;;;;1.10;0.90;;;19.60;67.30;;;;;;4995890;28;20527;-84
2023/03/24 03:37:00;;;;;;;1.00;0.80;;;19.60;67.30;;;;;;4996383;28;20436;-84
2023/03/24 03:39:29;;;;;;;1.17;0.80;;;19.60;67.30;;;;;;4996000;28;20478;-84
2023/03/24 03:41:58;;;;;;;1.43;0.80;;;19.60;67.30;;;;;;4995850;28;20931;-84
2023/03/24 03:44:26;;;;;;;1.10;0.80;;;19.60;67.30;;;;;;4995827;28;20475;-83
2023/03/24 03:46:53;;;;;;;1.30;0.90;;;19.60;67.30;;;;;;4995412;28;20901;-83
2023/03/24 03:49:20;;;;;;;1.03;0.77;;;19.60;67.30;;;;;;4995559;28;20466;-84
2023/03/24 03:51:47;;;;;;;1.10;1.00;;;19.60;67.30;;;;;;4995715;28;20931;-84
2023/03/24 03:54:16;;;;;;;1.10;0.90;;;19.60;67.30;;;;;;4995596;28;20448;-84
2023/03/24 03:56:44;;;;;;;1.10;0.87;;;19.60;67.30;;;;;;4995614;28;20446;-84
2023/03/24 03:59:24;;;;;;;1.10;0.80;;;19.60;67.30;;;;;;4995480;28;21006;-84
2023/03/24 04:01:51;;;;;;;1.10;1.00;;;19.60;67.30;;;;;;4996028;28;20448;-84
2023/03/24 04:04:43;;;;;;;1.00;0.80;;;19.60;67.30;;;;;;4995724;28;21006;-84
2023/03/24 04:07:18;;;;;;;1.10;0.90;;;19.60;67.20;;;;;;4995606;28;20444;-84
2023/03/24 04:09:58;;;;;;;1.50;0.90;;;19.60;67.30;;;;;;4995461;28;20487;-84
2023/03/24 04:12:49;;;;;;;1.00;0.77;;;19.60;67.30;;;;;;4995647;28;20467;-84
2023/03/24 04:15:34;;;;;;;1.30;1.10;;;19.60;67.30;;;;;;4994684;28;20450;-84
2023/03/24 04:18:39;;;;;;;1.20;1.00;;;19.60;67.30;;;;;;4995105;28;20472;-84
2023/03/24 04:21:17;;;;;;;1.50;0.90;;;19.60;67.30;;;;;;4991506;28;20558;-83
2023/03/24 04:23:53;;;;;;;1.20;0.97;;;19.60;67.40;;;;;;4995161;28;20534;-85
2023/03/24 04:26:26;;;;;;;1.10;0.90;;;19.60;67.30;;;;;;4995366;28;20440;-84
2023/03/24 04:29:03;;;;;;;1.03;0.90;;;19.60;67.30;;;;;;4994593;28;20538;-87
2023/03/24 04:31:36;;;;;;;1.20;1.00;;;19.60;67.30;;;;;;4995335;28;20467;-84
2023/03/24 04:34:05;;;;;;;1.07;0.80;;;19.60;67.30;;;;;;4995076;28;20879;-84
2023/03/24 04:36:41;;;;;;;1.20;0.97;;;19.60;67.30;;;;;;4994693;28;20878;-85
2023/03/24 04:39:11;;;;;;;1.13;1.00;;;19.60;68.10;;;;;;4995006;28;20446;-84
2023/03/24 04:41:37;;;;;;;1.00;0.80;;;19.60;67.30;;;;;;4994931;28;20530;-84
2023/03/24 04:44:04;;;;;;;1.40;1.00;;;19.60;67.40;;;;;;4994881;28;20462;-87
2023/03/24 04:46:33;;;;;;;1.00;0.80;;;19.60;67.30;;;;;;4994727;28;20444;-83
2023/03/24 04:49:01;;;;;;;1.33;0.97;;;19.60;67.30;;;;;;4994505;28;20472;-86
2023/03/24 04:51:28;;;;;;;1.47;0.80;;;19.60;67.30;;;;;;4994401;28;20453;-84
2023/03/24 04:53:55;;;;;;;1.10;1.00;;;19.60;67.20;;;;;;4994473;28;20445;-84
2023/03/24 04:56:39;;;;;;;1.40;1.03;;;19.60;67.30;;;;;;4995528;28;20443;-84
2023/03/24 04:59:07;;;;;;;1.20;0.77;;;19.60;67.30;;;;;;4995668;28;20786;-84
2023/03/24 05:01:36;;;;;;;1.43;1.00;;;19.60;67.30;;;;;;4997125;28;20492;-82
2023/03/24 05:04:04;;;;;;;1.10;0.90;;;19.80;67.50;;;;;;5009300;28;20447;-83
2023/03/24 05:06:32;;;;;;;1.10;0.70;;;19.60;67.30;;;;;;5003500;28;20432;-81
2023/03/24 05:08:59;;;;;;;1.00;0.70;;;19.60;67.30;;;;;;5007129;28;20425;-85
2023/03/24 05:11:27;;;;;;;1.13;1.00;;;19.60;67.20;;;;;;5018716;28;20428;-84
2023/03/24 05:13:54;;;;;;;1.17;0.90;;;19.60;67.20;;;;;;5007605;28;20935;-84
2023/03/24 05:16:21;;;;;;;1.10;0.90;;;19.60;67.20;;;;;;4994520;28;20451;-86
2023/03/24 05:18:49;;;;;;;1.10;0.90;;;19.60;67.30;;;;;;4994039;28;20477;-85
2023/03/24 05:21:15;;;;;;;1.07;0.77;;;19.60;67.20;;;;;;4994020;28;20483;-84
2023/03/24 05:23:42;;;;;;;1.00;0.70;;;19.60;67.30;;;;;;4994476;28;20453;-84
2023/03/24 05:26:09;;;;;;;1.27;0.80;;;19.60;67.30;;;;;;4993936;28;20455;-84
2023/03/24 05:28:36;;;;;;;1.00;0.80;;;19.60;67.30;;;;;;4994283;28;20526;-84
2023/03/24 05:31:03;;;;;;;1.10;0.80;;;19.60;67.20;;;;;;4992956;28;20561;-84
2023/03/24 05:33:30;;;;;;;1.27;0.90;;;19.60;67.20;;;;;;4992759;28;20452;-84
2023/03/24 05:35:58;;;;;;;2.20;0.87;;;19.60;67.30;;;;;;4993610;28;20506;-83
2023/03/24 05:38:24;;;;;;;1.33;0.90;;;19.60;67.30;;;;;;4993791;28;20463;-84
2023/03/24 05:40:51;;;;;;;1.00;0.90;;;19.60;67.20;;;;;;4997795;28;20495;-86
2023/03/24 05:43:18;;;;;;;1.20;0.83;;;19.60;67.20;;;;;;4997945;28;20439;-83
2023/03/24 05:45:45;;;;;;;1.00;0.80;;;19.60;67.20;;;;;;4997743;28;20448;-81
2023/03/24 05:48:12;;;;;;;1.10;0.80;;;19.70;67.40;;;;;;4997536;28;20817;-85
2023/03/24 05:50:38;;;;;;;2.10;0.80;;;19.60;67.30;;;;;;4997796;28;20531;-84
2023/03/24 05:53:07;;;;;;;2.60;1.00;;;19.60;67.20;;;;;;4997734;28;20444;-85
2023/03/24 05:55:34;;;;;;;2.57;1.00;;;19.60;67.10;;;;;;4997544;28;20875;-84
2023/03/24 05:58:02;;;;;;;1.67;0.97;;;19.60;68.10;;;;;;4997676;28;20454;-88
2023/03/24 06:00:30;;;;;;;1.87;1.00;;;19.60;67.40;;;;;;4997432;28;20504;-84
2023/03/24 06:02:57;;;;;;;1.20;1.10;;;19.60;67.50;;;;;;4997392;28;20451;-88
2023/03/24 06:05:25;;;;;;;1.20;0.80;;;19.60;67.50;;;;;;4997622;28;20447;-84
2023/03/24 06:07:57;;;;;;;1.00;0.80;;;19.60;67.60;;;;;;4997756;28;20798;-84
2023/03/24 06:10:26;;;;;;;1.57;0.80;;;19.60;67.70;;;;;;4997302;28;20451;-88
2023/03/24 06:12:54;;;;;;;4.93;1.07;;;19.60;67.80;;;;;;4997432;28;20449;-89
2023/03/24 06:15:21;;;;;;;1.20;0.90;;;19.60;67.80;;;;;;4997565;28;20444;-89
2023/03/24 06:17:49;;;;;;;1.10;0.87;;;19.60;67.80;;;;;;4996975;28;20514;-84
2023/03/24 06:20:17;;;;;;;1.40;0.90;;;19.60;67.80;;;;;;4997060;28;20475;-85
2023/03/24 06:22:47;;;;;;;2.07;1.20;;;19.60;67.90;;;;;;4997103;28;20448;-85
2023/03/24 06:25:15;;;;;;;1.00;0.87;;;19.60;68.00;;;;;;4996902;28;20444;-84
2023/03/24 06:27:45;;;;;;;1.20;0.90;;;19.60;68.00;;;;;;4997417;28;20451;-84
2023/03/24 06:30:14;;;;;;;1.00;0.77;;;19.60;68.00;;;;;;4998701;28;20450;-85
2023/03/24 06:32:42;;;;;;;1.00;0.80;;;19.60;68.10;;;;;;4998383;28;20443;-87
2023/03/24 06:35:10;;;;;;;1.50;1.40;;;19.60;68.00;;;;;;4997520;28;20468;-87
2023/03/24 06:37:37;;;;;;;1.40;0.87;;;19.60;67.80;;;;;;4997218;28;20802;-89
2023/03/24 06:40:08;;;;;;;1.00;0.80;;;19.70;68.00;;;;;;4997244;28;20444;-87
2023/03/24 06:42:35;;;;;;;1.13;0.90;;;19.70;68.20;;;;;;4997286;28;21001;-91
2023/03/24 06:45:04;;;;;;;1.17;0.90;;;19.60;68.00;;;;;;4997055;28;20440;-87
2023/03/24 06:47:31;;;;;;;1.10;1.00;;;19.60;68.30;;;;;;4991154;28;20506;-93
2023/03/24 06:49:58;;;;;;;1.93;1.07;;;19.70;68.20;;;;;;4991298;28;20536;-94
2023/03/24 06:52:26;;;;;;;1.63;1.00;;;19.70;68.20;;;;;;4977655;28;20453;-93
2023/03/24 06:54:57;;;;;;;1.10;0.90;;;19.70;68.00;;;;;;4977408;28;20440;-85
2023/03/24 06:57:23;;;;;;;1.60;0.70;;;19.70;68.00;;;;;;4977427;28;20433;-85
2023/03/24 06:59:50;;;;;;;2.73;1.10;;;19.90;68.30;;;;;;4989725;23;20479;-90
2023/03/24 07:02:21;;;;;;;4.10;1.20;;;19.70;66.90;;;;;;4998744;28;20492;-92
2023/03/24 07:04:49;;;;;;;3.50;1.17;;;19.70;66.80;;;;;;4980423;28;20481;-89
2023/03/24 07:07:16;;;;;;;1.93;1.20;;;19.70;67.00;;;;;;4984917;28;20881;-93
2023/03/24 07:09:43;;;;;;;2.63;1.30;;;19.70;67.10;;;;;;4995785;28;20462;-85
2023/03/24 07:12:10;;;;;;;2.20;1.00;;;19.70;67.10;;;;;;4997850;28;20454;-85
2023/03/24 07:14:37;;;;;;;1.63;1.10;;;19.70;67.10;;;;;;4997317;28;20420;-86
2023/03/24 07:17:05;;;;;;;2.30;0.90;;;19.70;67.10;;;;;;4997237;28;20450;-92
2023/03/24 07:19:33;;;;;;;2.50;1.03;;;19.80;67.30;;;;;;4996880;28;20440;-91
2023/03/24 07:22:00;;;;;;;1.30;1.00;;;19.80;67.40;;;;;;4998453;28;20569;-94
2023/03/24 07:24:27;;;;;;;1.70;1.10;;;19.80;67.50;;;;;;5004974;28;20523;-95
2023/03/24 07:27:03;;;;;;;1.63;1.00;;;19.80;67.40;;;;;;5002881;28;20486;-96
2023/03/24 07:29:30;;;;;;;1.00;0.73;;;19.90;67.60;;;;;;4997590;28;20439;-88
2023/03/24 07:31:59;;;;;;;3.97;1.00;;;19.90;67.60;;;;;;4996641;28;20503;-89
2023/03/24 07:34:27;;;;;;;1.20;0.97;;;19.90;67.60;;;;;;4998140;28;20439;-90
2023/03/24 07:36:56;;;;;;;1.50;1.00;;;19.90;67.60;;;;;;4997766;28;20440;-84
2023/03/24 07:39:32;;;;;;;2.03;0.83;;;19.90;67.60;;;;;;5001791;28;20452;-95
2023/03/24 07:41:59;;;;;;;2.07;1.10;;;19.90;67.60;;;;;;4991977;28;21058;-87
2023/03/24 07:44:26;;;;;;;3.53;1.17;;;19.90;67.70;;;;;;4978705;28;20448;-87
2023/03/24 07:46:53;;;;;;;1.20;0.90;;;19.90;67.70;;;;;;4992301;28;20429;-92
2023/03/24 07:49:20;;;;;;;1.83;0.90;;;19.90;67.80;;;;;;5001234;28;20473;-91
2023/03/24 07:51:47;;;;;;;1.33;1.07;;;19.90;67.90;;;;;;4982605;28;20456;-96
2023/03/24 07:54:15;;;;;;;1.27;1.17;;;19.90;67.90;;;;;;4977000;28;20481;-95
2023/03/24 07:56:42;;;;;;;1.40;1.20;;;19.90;68.10;;;;;;4979109;28;20449;-89
2023/03/24 07:59:12;;;;;;;2.20;1.00;;;19.90;68.20;;;;;;4977948;28;20932;-96
2023/03/24 08:01:39;;;;;;;1.50;1.20;;;20.00;69.10;;;;;;4978164;28;20528;-90
2023/03/24 08:04:06;;;;;;;1.20;0.90;;;20.00;68.30;;;;;;4975805;28;20477;-93
2023/03/24 08:06:33;;;;;;;1.40;0.90;;;20.20;68.40;;;;;;4977417;28;20445;-89
2023/03/24 08:09:04;;;;;;;1.80;1.03;;;20.10;68.30;;;;;;4976664;28;20456;-96
2023/03/24 08:11:32;;;;;;;1.20;0.90;;;20.10;68.20;;;;;;4976621;28;20489;-93
2023/03/24 08:13:59;;;;;;;3.63;1.00;;;20.30;68.30;;;;;;4976758;28;20456;-93
2023/03/24 08:16:27;;;;;;;2.90;1.00;;;20.20;68.10;;;;;;4975732;28;20467;-93
2023/03/24 08:18:57;;;;;;;1.10;0.87;;;20.20;68.10;;;;;;4977743;28;21043;-88
2023/03/24 08:21:24;;;;;;;3.40;0.87;;;20.20;68.00;;;;;;4974939;28;20514;-87
2023/03/24 08:23:52;;;;;;;4.03;0.90;;;20.20;68.00;;;;;;4975461;28;20445;-86
2023/03/24 08:26:19;;;;;;;1.17;1.07;;;20.30;68.00;;;;;;4975462;28;20443;-86
2023/03/24 08:28:48;;;;;;;1.30;1.00;;;20.30;68.00;;;;;;4975357;28;20865;-90
2023/03/24 08:31:15;;;;;;;1.20;0.80;;;20.40;68.10;;;;;;4975204;28;20804;-87
2023/03/24 08:33:42;;;;;;;1.40;0.93;;;20.40;68.10;;;;;;4975413;28;20445;-87
2023/03/24 08:36:08;;;;;;;1.43;1.10;;;20.30;68.00;;;;;;4974720;28;20444;-85
2023/03/24 08:38:37;;;;;;;1.30;1.03;;;20.40;67.90;;;;;;4974698;28;20447;-87
2023/03/24 08:41:07;;;;;;;1.07;0.83;;;20.40;68.00;;;;;;4973356;28;20961;-87
2023/03/24 08:43:35;;;;;;;1.83;0.97;;;20.50;68.00;;;;;;4974260;28;20456;-86
2023/03/24 08:46:06;;;;;;;1.10;0.80;;;20.50;68.00;;;;;;4974358;28;20456;-87
2023/03/24 08:48:35;;;;;;;4.50;1.33;;;20.50;67.90;;;;;;4974361;28;20469;-87
2023/03/24 08:51:10;;;;;;;1.47;1.00;;;20.70;68.10;;;;;;4974325;28;20453;-88
2023/03/24 08:53:37;;;;;;;1.30;1.00;;;20.60;67.90;;;;;;4973804;28;20447;-88
2023/03/24 08:56:05;;;;;;;1.47;0.90;;;20.50;67.90;;;;;;4973008;28;20445;-88
2023/03/24 08:58:32;;;;;;;1.50;0.97;;;20.50;67.90;;;;;;4972841;28;20959;-87
2023/03/24 09:00:59;;;;;;;1.73;1.10;;;20.50;67.90;;;;;;4972760;28;20568;-87
2023/03/24 09:03:27;;;;;;;1.10;0.90;;;20.60;68.00;;;;;;4972983;28;20449;-87
2023/03/24 09:05:57;;;;;;;1.20;0.90;;;20.60;68.00;;;;;;4972852;28;21146;-87
2023/03/24 09:08:24;;;;;;;1.40;0.90;;;20.60;67.90;;;;;;4973207;28;20464;-87
2023/03/24 09:10:51;;;;;;;2.20;1.23;;;20.60;67.90;;;;;;4974924;28;20516;-87
2023/03/24 09:13:19;;;;;;;1.80;0.93;;;20.70;68.10;;;;;;4975215;28;20441;-87
2023/03/24 09:15:47;;;;;;;1.60;0.90;;;20.70;68.00;;;;;;4975035;28;20484;-87
2023/03/24 09:18:14;;;;;;;1.53;0.90;;;20.70;68.00;;;;;;4975208;28;20961;-90
2023/03/24 09:20:43;;;;;;;1.50;0.90;;;20.80;68.10;;;;;;4975861;28;20488;-87
2023/03/24 09:23:10;;;;;;;1.40;0.93;;;20.80;68.00;;;;;;4974616;28;20496;-87
2023/03/24 09:25:37;;;;;;;1.23;1.00;;;20.90;68.00;;;;;;4974976;28;21003;-88
2023/03/24 09:28:05;;;;;;;1.10;0.87;;;20.90;67.70;;;;;;4974811;28;20455;-86
2023/03/24 09:30:31;;;;;;;1.37;1.00;;;21.00;67.80;;;;;;4975017;28;20461;-87
2023/03/24 09:32:58;;;;;;;1.70;1.20;;;20.90;67.80;;;;;;4975706;28;20452;-88
2023/03/24 09:35:26;;;;;;;1.87;1.00;;;21.00;67.80;;;;;;4975524;28;20451;-88
2023/03/24 09:37:54;;;;;;;1.27;0.97;;;20.90;67.80;;;;;;4974713;28;20548;-87
2023/03/24 09:40:25;;;;;;;3.07;0.80;;;21.10;68.00;;;;;;4974950;28;20568;-89
2023/03/24 09:42:56;;;;;;;1.30;0.80;;;20.90;68.80;;;;;;4975003;28;21009;-87
2023/03/24 09:45:23;;;;;;;1.27;0.90;;;20.90;67.90;;;;;;4974977;28;20542;-86
2023/03/24 09:47:55;;;;;;;1.30;1.03;;;21.10;68.10;;;;;;4975076;28;20469;-86
2023/03/24 09:50:25;;;;;;;1.33;0.80;;;20.90;67.90;;;;;;4974192;28;20523;-86
2023/03/24 09:52:59;;;;;;;1.30;0.90;;;20.90;67.90;;;;;;4974886;28;20445;-86
2023/03/24 09:55:28;;;;;;;1.23;1.00;;;21.00;68.00;;;;;;4976721;28;20623;-86
2023/03/24 09:57:59;;;;;;;1.40;0.90;;;20.90;68.00;;;;;;4977932;28;20453;-86
2023/03/24 10:00:28;;;;;;;1.77;0.97;;;21.00;68.00;;;;;;4978533;28;20485;-91
2023/03/24 10:03:00;;;;;;;1.73;1.43;;;20.90;67.90;;;;;;4974151;28;20489;-87
2023/03/24 10:05:31;;;;;;;1.40;1.00;;;20.90;68.00;;;;;;4973886;28;20458;-86
2023/03/24 10:08:04;;;;;;;1.27;0.97;;;20.90;68.00;;;;;;4974442;28;20441;-88
2023/03/24 10:10:40;;;;;;;2.87;1.00;;;20.90;68.00;;;;;;4974270;28;20455;-91
2023/03/24 10:13:13;;;;;;;1.27;0.90;;;20.90;68.10;;;;;;4974456;28;20515;-86
2023/03/24 10:15:48;;;;;;;1.20;1.00;;;20.90;68.10;;;;;;4974010;28;20468;-86
2023/03/24 10:18:29;;;;;;;1.70;1.00;;;20.90;68.00;;;;;;4974743;28;20496;-87
2023/03/24 10:21:03;;;;;;;1.10;0.70;;;20.90;68.00;;;;;;4977419;28;20448;-88
2023/03/24 10:23:37;;;;;;;1.27;0.80;;;20.90;68.00;;;;;;4999115;28;20471;-87
2023/03/24 10:26:12;;;;;;;1.60;1.00;;;20.90;68.10;;;;;;4990841;28;20446;-86
2023/03/24 10:28:46;;;;;;;1.17;0.90;;;20.90;68.10;;;;;;4977579;28;20954;-90
2023/03/24 10:31:15;;;;;;;1.37;0.90;;;20.80;68.10;;;;;;4977552;28;20516;-86
2023/03/24 10:33:44;;;;;;;1.27;1.03;;;20.80;68.00;;;;;;4977499;28;20937;-86
2023/03/24 10:36:14;;;;;;;1.93;0.90;;;20.80;68.00;;;;;;4977518;28;20453;-86
2023/03/24 10:38:42;;;;;;;1.60;0.90;;;20.80;68.10;;;;;;4960520;28;20495;-91
2023/03/24 10:41:16;;;;;;;1.93;1.03;;;20.80;68.10;;;;;;4977480;28;20936;-87
2023/03/24 10:43:44;;;;;;;1.10;0.97;;;20.80;68.00;;;;;;4977433;28;20488;-85
2023/03/24 10:46:13;;;;;;;1.17;0.93;;;20.80;68.10;;;;;;4977340;28;20449;-85
2023/03/24 10:48:46;;;;;;;1.10;0.80;;;20.80;68.10;;;;;;4977095;28;20465;-90
2023/03/24 10:51:16;;;;;;;1.10;0.90;;;20.80;68.20;;;;;;4977159;28;20453;-86
2023/03/24 10:53:46;;;;;;;1.23;0.93;;;20.80;68.20;;;;;;4977030;28;20453;-91
2023/03/24 10:56:16;;;;;;;1.40;0.80;;;20.80;68.20;;;;;;4976945;28;20449;-86
2023/03/24 10:58:44;;;;;;;1.10;0.93;;;20.80;68.30;;;;;;4976972;28;20461;-86
2023/03/24 11:01:24;;;;;;;1.00;0.80;;;20.80;68.30;;;;;;4976780;28;20480;-85
2023/03/24 11:03:52;;;;;;;1.20;0.80;;;21.00;68.50;;;;;;4977108;28;20543;-89
2023/03/24 11:06:20;;;;;;;1.40;0.97;;;20.90;68.30;;;;;;4976868;28;20449;-88
2023/03/24 11:09:08;;;;;;;1.10;0.90;;;21.00;68.30;;;;;;4976949;28;20799;-82
2023/03/24 11:11:35;;;;;;;2.60;1.00;;;21.10;68.30;;;;;;4976864;28;20453;-85
2023/03/24 11:14:03;;;;;;;2.03;0.90;;;21.20;68.20;;;;;;4976834;28;20477;-85
2023/03/24 11:16:32;;;;;;;2.70;0.80;;;21.20;67.90;;;;;;4976486;28;20544;-85
2023/03/24 11:19:00;;;;;;;1.50;1.00;;;21.20;67.80;;;;;;4976456;28;20458;-85
2023/03/24 11:21:29;;;;;;;1.63;0.90;;;21.20;67.70;;;;;;4976632;28;20496;-86
2023/03/24 11:24:00;;;;;;;4.03;0.83;;;21.20;67.60;;;;;;4976801;28;20460;-85
2023/03/24 11:26:31;;;;;;;1.10;0.80;;;21.30;67.70;;;;;;4976504;28;20965;-86
2023/03/24 11:29:01;;;;;;;1.10;0.80;;;21.30;67.60;;;;;;4976316;28;20452;-85
2023/03/24 11:31:30;;;;;;;1.10;0.93;;;21.20;67.60;;;;;;4976522;28;20477;-86
2023/03/24 11:33:59;;;;;;;1.33;0.87;;;21.20;67.80;;;;;;4976372;28;20502;-85
2023/03/24 11:36:41;;;;;;;1.50;0.90;;;21.30;68.10;;;;;;4976645;28;20448;-85
2023/03/24 11:39:18;;;;;;;2.17;0.80;;;21.40;68.40;;;;;;4976604;28;20445;-86
2023/03/24 11:42:02;;;;;;;6.70;1.27;;;21.30;68.60;;;;;;4976497;28;20448;-87
2023/03/24 11:44:43;;;;;;;1.87;1.07;;;21.30;68.90;;;;;;4977377;28;20455;-86
2023/03/24 11:47:13;;;;;;;2.17;1.00;;;21.30;69.10;;;;;;4976310;28;20461;-86
2023/03/24 11:49:45;;;;;;;3.00;1.00;;;21.30;69.40;;;;;;4976614;28;20492;-85
2023/03/24 11:52:19;;;;;;;1.80;0.97;;;21.40;69.80;;;;;;4977100;28;20457;-86
2023/03/24 11:54:47;;;;;;;1.57;0.90;;;21.40;70.10;;;;;;4976260;28;20452;-86
2023/03/24 11:57:18;;;;;;;1.83;1.13;;;21.40;70.30;;;;;;4976134;28;20437;-86
2023/03/24 11:59:51;;;;;;;8.63;1.93;;;21.50;70.70;;;;;;4975814;28;20455;-85
2023/03/24 12:02:25;;;;;;;6.23;2.60;;;21.50;71.00;;;;;;4976230;28;20487;-86
2023/03/24 12:05:03;;;;;;;9.60;3.40;;;21.50;70.80;;;;;;4976285;28;20445;-86
2023/03/24 12:07:53;;;;;;;8.97;2.60;;;21.60;70.50;;;;;;4974796;28;20453;-87
2023/03/24 12:10:38;;;;;;;9.60;3.10;;;21.50;71.10;;;;;;4976010;28;20441;-85
2023/03/24 12:13:09;;;;;;;5.50;2.70;;;21.50;69.70;;;;;;4976771;28;20453;-87
2023/03/24 12:15:48;;;;;;;9.67;3.17;;;21.50;70.20;;;;;;4975959;28;20453;-87
2023/03/24 12:18:40;;;;;;;8.20;3.03;;;21.40;69.40;;;;;;4975509;28;20464;-87
2023/03/24 12:21:16;;;;;;;10.20;3.67;;;21.40;70.30;;;;;;4975706;28;20876;-87
2023/03/24 12:23:52;;;;;;;6.73;3.10;;;21.40;70.70;;;;;;4975494;28;20516;-88
2023/03/24 12:26:23;;;;;;;5.60;2.87;;;21.40;70.60;;;;;;4975527;28;20914;-87
2023/03/24 12:28:57;;;;;;;12.23;2.97;;;21.40;72.30;;;;;;4975468;28;20441;-87
2023/03/24 12:32:08;;;;;;;8.43;2.77;;;21.40;71.60;;;;;;4975457;28;20495;-88
2023/03/24 12:35:12;;;;;;;6.07;3.13;;;21.40;71.80;;;;;;4897221;29;20936;-87
2023/03/24 12:37:48;;;;;;;11.80;3.53;;;21.50;71.80;;;;;;4975315;28;20444;-89
2023/03/24 12:40:45;;;;;;;11.97;3.50;;;21.50;71.80;;;;;;4975239;28;20441;-87
2023/03/24 12:43:23;;;;;;;12.30;3.90;;;21.50;72.00;;;;;;4965960;28;20495;-86
2023/03/24 12:45:53;;;;;;;7.30;3.07;;;21.50;71.90;;;;;;4973161;28;20440;-87
2023/03/24 12:48:43;;;;;;;7.47;2.47;;;21.60;72.20;;;;;;4973953;28;20461;-86
2023/03/24 12:51:23;;;;;;;12.53;3.70;;;21.60;71.90;;;;;;4974679;28;20452;-86
2023/03/24 12:53:59;;;;;;;9.10;3.20;;;21.60;72.80;;;;;;4975050;28;20536;-86
2023/03/24 12:56:31;;;;;;;10.47;3.30;;;21.60;72.70;;;;;;4974397;28;20444;-87
2023/03/24 12:59:04;;;;;;;13.00;3.27;;;21.60;72.80;;;;;;4976611;28;20448;-86
2023/03/24 13:01:35;;;;;;;7.13;2.73;;;21.60;72.20;;;;;;4994525;28;20524;-87
2023/03/24 13:04:10;;;;;;;6.30;2.20;;;21.60;72.60;;;;;;4999089;28;20465;-87
2023/03/24 13:06:43;;;;;;;5.70;2.60;;;21.70;72.60;;;;;;4973268;28;20449;-89